Time;durP1;ratioP1;P1;durP2;ratioP2;P2;SDS_P1;SDS_P2;PMS_P1;PMS_P2;Temp;Humidity;BMP_temperature;BMP_pressure;BME280_temperature;BME280_humidity;BME280_pressure;Samples;Min_cycle;Max_cycle;Signal;HPM_P1;HPM_P2
2022/11/10 00:02:03;;;;;;;74.80;11.90;;;;;;;;;;6300458;22;20042;-60
2022/11/10 00:04:30;;;;;;;78.60;12.93;;;;;;;;;;6300387;22;20664;-59
2022/11/10 00:06:57;;;;;;;82.88;14.15;;;;;;;;;;6301141;22;20030;-60
2022/11/10 00:09:31;;;;;;;75.70;13.20;;;;;;;;;;6300755;22;20057;-50
2022/11/10 00:11:58;;;;;;;83.38;14.07;;;;;;;;;;6300038;22;20097;-51
2022/11/10 00:17:18;;;;;;;76.10;12.70;;;;;;;;;;6299291;22;20464;-52
2022/11/10 00:19:52;;;;;;;77.68;13.35;;;;;;;;;;6300538;22;20038;-50
2022/11/10 00:22:19;;;;;;;80.88;13.05;;;;;;;;;;6273252;22;20482;-51
2022/11/10 00:24:51;;;;;;;70.78;12.52;;;;;;;;;;6299545;22;20097;-65
2022/11/10 00:27:25;;;;;;;104.75;16.80;;;;;;;;;;6300871;22;20030;-64
2022/11/10 00:29:52;;;;;;;66.68;12.45;;;;;;;;;;6300698;22;20584;-65
2022/11/10 00:32:19;;;;;;;75.50;14.38;;;;;;;;;;6302008;22;20023;-66
2022/11/10 00:34:53;;;;;;;88.50;15.73;;;;;;;;;;6300340;22;20026;-65
2022/11/10 00:37:20;;;;;;;89.65;15.63;;;;;;;;;;6300181;22;20103;-65
2022/11/10 00:39:47;;;;;;;101.38;16.58;;;;;;;;;;6299840;22;20480;-65
2022/11/10 00:42:21;;;;;;;81.88;14.38;;;;;;;;;;6300581;22;20021;-53
2022/11/10 00:44:48;;;;;;;72.97;14.60;;;;;;;;;;6300874;22;20019;-51
2022/11/10 00:47:22;;;;;;;68.53;13.32;;;;;;;;;;6301278;22;20094;-60
2022/11/10 00:49:49;;;;;;;68.32;12.25;;;;;;;;;;6301481;22;20019;-60
2022/11/10 00:52:16;;;;;;;84.72;13.70;;;;;;;;;;6300114;22;20020;-60
2022/11/10 00:54:50;;;;;;;83.57;13.63;;;;;;;;;;6299989;22;20026;-60
2022/11/10 00:57:17;;;;;;;95.68;15.25;;;;;;;;;;6301195;22;20111;-61
2022/11/10 00:59:44;;;;;;;57.13;12.63;;;;;;;;;;6299811;22;20405;-60
2022/11/10 01:02:25;;;;;;;82.03;14.15;;;;;;;;;;6301386;22;20038;-60
2022/11/10 01:04:52;;;;;;;103.25;15.15;;;;;;;;;;6300713;22;20105;-50
2022/11/10 01:07:26;;;;;;;95.70;15.65;;;;;;;;;;6301872;22;20019;-50
2022/11/10 01:09:53;;;;;;;92.75;14.43;;;;;;;;;;6299536;22;20098;-52
2022/11/10 01:12:20;;;;;;;77.00;14.77;;;;;;;;;;6299045;22;20054;-51
2022/11/10 01:14:54;;;;;;;75.20;14.68;;;;;;;;;;6275778;22;20019;-49
2022/11/10 01:17:21;;;;;;;75.95;13.70;;;;;;;;;;6301587;22;20015;-52
2022/11/10 01:19:55;;;;;;;75.35;14.13;;;;;;;;;;6301765;22;20030;-60
2022/11/10 01:22:22;;;;;;;65.68;13.88;;;;;;;;;;6302845;22;20015;-60
2022/11/10 01:24:49;;;;;;;88.97;14.95;;;;;;;;;;6303301;22;20114;-51
2022/11/10 01:27:23;;;;;;;73.15;15.25;;;;;;;;;;6302128;22;20412;-48
2022/11/10 01:29:50;;;;;;;94.30;14.68;;;;;;;;;;6302804;22;20026;-50
2022/11/10 01:32:24;;;;;;;73.40;14.20;;;;;;;;;;6302508;22;20019;-53
2022/11/10 01:34:51;;;;;;;;;;;;;;;;;;6304124;22;20103;-55
2022/11/10 01:37:18;;;;;;;84.70;13.18;;;;;;;;;;6302579;22;19922;-55
2022/11/10 01:39:52;;;;;;;67.45;13.45;;;;;;;;;;6302814;22;20019;-59
2022/11/10 01:42:26;;;;;;;60.00;12.63;;;;;;;;;;6302280;22;20042;-58
2022/11/10 01:45:18;;;;;;;77.30;13.30;;;;;;;;;;6302688;22;20023;-62
2022/11/10 01:47:46;;;;;;;92.15;14.68;;;;;;;;;;6302169;22;20485;-62
2022/11/10 01:50:21;;;;;;;67.93;13.25;;;;;;;;;;6302904;22;20479;-62
2022/11/10 01:52:51;;;;;;;63.20;11.98;;;;;;;;;;6301607;22;20030;-62
2022/11/10 01:55:18;;;;;;;69.40;12.00;;;;;;;;;;6300062;22;20030;-62
2022/11/10 01:57:58;;;;;;;63.55;12.38;;;;;;;;;;6301915;22;20015;-62
2022/11/10 02:00:32;;;;;;;92.72;13.02;;;;;;;;;;6270930;22;20500;-65
2022/11/10 02:03:13;;;;;;;62.00;13.32;;;;;;;;;;6270587;22;20475;-60
2022/11/10 02:05:41;;;;;;;77.78;14.73;;;;;;;;;;6272208;22;20030;-59
2022/11/10 02:08:17;;;;;;;78.03;11.95;;;;;;;;;;6271184;22;20049;-60
2022/11/10 02:10:44;;;;;;;78.88;14.05;;;;;;;;;;6269656;22;20020;-60
2022/11/10 02:13:18;;;;;;;54.05;12.00;;;;;;;;;;6270425;22;20019;-59
2022/11/10 02:15:45;;;;;;;72.40;11.75;;;;;;;;;;6271148;22;20357;-60
2022/11/10 02:18:13;;;;;;;70.18;12.27;;;;;;;;;;6269776;22;20646;-64
2022/11/10 02:20:47;;;;;;;55.17;11.63;;;;;;;;;;6270376;22;20090;-61
2022/11/10 02:23:34;;;;;;;75.30;13.05;;;;;;;;;;6270278;22;20094;-62
2022/11/10 02:26:08;;;;;;;73.93;12.45;;;;;;;;;;6271021;22;20099;-62
2022/11/10 02:28:35;;;;;;;65.07;11.95;;;;;;;;;;6269506;22;20019;-62
2022/11/10 02:31:10;;;;;;;77.07;13.65;;;;;;;;;;6270455;22;20019;-62
2022/11/10 02:33:37;;;;;;;74.55;12.52;;;;;;;;;;6270177;22;20095;-62
2022/11/10 02:36:11;;;;;;;75.97;11.27;;;;;;;;;;6269527;22;20030;-57
2022/11/10 02:38:38;;;;;;;82.53;12.32;;;;;;;;;;6270835;22;20023;-64
2022/11/10 02:41:06;;;;;;;70.88;10.85;;;;;;;;;;6270288;22;20093;-64
2022/11/10 02:43:40;;;;;;;73.50;12.85;;;;;;;;;;6270402;22;20544;-64
2022/11/10 02:46:07;;;;;;;77.07;13.02;;;;;;;;;;6269849;22;20058;-65
2022/11/10 02:48:41;;;;;;;66.20;11.32;;;;;;;;;;6270877;22;20077;-65
2022/11/10 02:51:08;;;;;;;52.20;11.55;;;;;;;;;;6270917;22;20096;-65
2022/11/10 02:53:35;;;;;;;98.30;11.48;;;;;;;;;;6269679;22;20019;-65
2022/11/10 02:56:09;;;;;;;74.10;11.07;;;;;;;;;;6271640;22;20023;-59
2022/11/10 02:58:43;;;;;;;74.45;11.95;;;;;;;;;;6278846;22;20019;-62
2022/11/10 03:01:17;;;;;;;62.95;10.30;;;;;;;;;;6298849;22;20058;-60
2022/11/10 03:03:44;;;;;;;68.50;8.85;;;;;;;;;;6301220;22;20049;-60
2022/11/10 03:06:11;;;;;;;63.42;10.13;;;;;;;;;;6300334;22;20848;-60
2022/11/10 03:08:45;;;;;;;63.42;10.15;;;;;;;;;;6300459;22;20024;-59
2022/11/10 03:11:12;;;;;;;59.10;9.45;;;;;;;;;;6302029;22;20469;-60
2022/11/10 03:13:46;;;;;;;63.72;11.43;;;;;;;;;;6301634;22;20031;-60
2022/11/10 03:16:27;;;;;;;46.60;9.30;;;;;;;;;;6301748;22;20093;-60
2022/11/10 03:19:01;;;;;;;60.10;9.43;;;;;;;;;;6301567;22;20019;-49
2022/11/10 03:21:35;;;;;;;55.15;9.23;;;;;;;;;;6301139;22;20059;-53
2022/11/10 03:24:09;;;;;;;69.90;10.68;;;;;;;;;;6301582;22;20042;-53
2022/11/10 03:26:43;;;;;;;57.88;9.18;;;;;;;;;;6302058;22;20029;-52
2022/11/10 03:29:17;;;;;;;69.60;10.43;;;;;;;;;;6302788;22;20023;-51
2022/11/10 03:31:44;;;;;;;60.00;10.40;;;;;;;;;;6300918;22;20020;-54
2022/11/10 03:34:18;;;;;;;76.88;9.73;;;;;;;;;;6300324;22;20022;-60
2022/11/10 03:36:45;;;;;;;58.53;10.35;;;;;;;;;;6300435;22;20029;-65
2022/11/10 03:39:12;;;;;;;66.95;10.18;;;;;;;;;;6301584;22;20404;-65
2022/11/10 03:41:46;;;;;;;68.38;9.77;;;;;;;;;;6301087;22;20504;-65
2022/11/10 03:44:13;;;;;;;63.00;10.45;;;;;;;;;;6301558;22;20098;-65
2022/11/10 03:46:40;;;;;;;54.83;9.55;;;;;;;;;;6301722;22;20114;-64
2022/11/10 03:49:17;;;;;;;71.60;9.07;;;;;;;;;;6300023;22;20404;-64
2022/11/10 03:51:45;;;;;;;79.40;9.57;;;;;;;;;;6300228;22;20029;-65
2022/11/10 03:54:19;;;;;;;78.53;9.48;;;;;;;;;;6302052;22;20019;-60
2022/11/10 03:56:46;;;;;;;62.83;9.40;;;;;;;;;;6301514;22;20031;-62
2022/11/10 03:59:13;;;;;;;57.75;9.80;;;;;;;;;;6301754;22;20514;-62
2022/11/10 04:01:54;;;;;;;71.40;9.32;;;;;;;;;;6299800;22;20025;-62
2022/11/10 04:10:00;;;;;;;79.72;10.27;;;;;;;;;;6300846;22;20023;-62
2022/11/10 04:18:20;;;;;;;76.93;10.77;;;;;;;;;;6301441;22;20025;-58
2022/11/10 04:20:55;;;;;;;59.70;9.55;;;;;;;;;;6301480;22;20019;-59
2022/11/10 04:23:26;;;;;;;74.93;9.43;;;;;;;;;;6301008;22;20098;-59
2022/11/10 04:29:11;;;;;;;82.43;9.07;;;;;;;;;;6176920;23;20256;-59
2022/11/10 04:31:45;;;;;;;72.93;9.38;;;;;;;;;;6174930;23;20411;-60
2022/11/10 04:34:12;;;;;;;;;;;;;;;;;;6244410;22;20090;-51
2022/11/10 04:36:46;;;;;;;79.65;8.75;;;;;;;;;;6302005;22;19922;-52
2022/11/10 04:39:13;;;;;;;46.22;7.90;;;;;;;;;;6301898;22;20314;-54
2022/11/10 04:41:47;;;;;;;72.60;8.00;;;;;;;;;;6300435;22;20019;-53
2022/11/10 04:44:14;;;;;;;57.25;8.60;;;;;;;;;;6301371;22;20037;-50
2022/11/10 04:46:43;;;;;;;64.90;9.23;;;;;;;;;;6301195;22;20019;-52
2022/11/10 04:49:17;;;;;;;72.25;9.48;;;;;;;;;;6301654;22;20058;-51
2022/11/10 04:51:45;;;;;;;;;;;;;;;;;;6301232;22;20062;-64
2022/11/10 04:54:12;;;;;;;60.63;7.53;;;;;;;;;;6298986;22;19921;-61
2022/11/10 04:56:46;;;;;;;62.40;8.48;;;;;;;;;;6300143;22;20106;-61
2022/11/10 04:59:20;;;;;;;67.20;7.50;;;;;;;;;;6300385;22;20098;-61
2022/11/10 05:01:54;;;;;;;58.30;7.82;;;;;;;;;;6299822;22;20050;-61
2022/11/10 05:04:21;;;;;;;61.75;8.65;;;;;;;;;;6300775;22;20015;-61
2022/11/10 05:06:49;;;;;;;69.82;8.75;;;;;;;;;;6298157;22;20468;-60
2022/11/10 05:09:23;;;;;;;81.80;9.90;;;;;;;;;;6301791;22;20031;-60
2022/11/10 05:11:50;;;;;;;55.20;7.57;;;;;;;;;;6300962;22;20023;-49
2022/11/10 05:14:17;;;;;;;54.30;8.68;;;;;;;;;;6301141;22;20023;-60
2022/11/10 05:16:51;;;;;;;69.72;8.10;;;;;;;;;;6301924;22;20030;-60
2022/11/10 05:19:18;;;;;;;82.13;10.23;;;;;;;;;;6300362;22;20080;-60
2022/11/10 05:21:52;;;;;;;60.17;7.68;;;;;;;;;;6298267;22;20106;-60
2022/11/10 05:24:19;;;;;;;64.47;8.23;;;;;;;;;;6300286;22;20022;-60
2022/11/10 05:26:46;;;;;;;73.03;8.80;;;;;;;;;;6299648;22;20106;-60
2022/11/10 05:29:20;;;;;;;73.25;8.25;;;;;;;;;;6301700;22;20526;-61
2022/11/10 05:31:47;;;;;;;77.00;9.27;;;;;;;;;;6300506;22;20106;-65
2022/11/10 05:34:21;;;;;;;68.75;8.65;;;;;;;;;;6299481;22;20019;-65
2022/11/10 05:36:49;;;;;;;65.75;8.73;;;;;;;;;;6299865;22;20023;-65
2022/11/10 05:39:16;;;;;;;71.65;9.70;;;;;;;;;;6300868;22;20505;-64
2022/11/10 05:41:51;;;;;;;67.57;9.73;;;;;;;;;;6298457;22;20030;-64
2022/11/10 05:44:18;;;;;;;62.13;8.95;;;;;;;;;;6300720;22;20015;-64
2022/11/10 05:46:45;;;;;;;70.57;8.68;;;;;;;;;;6299370;22;20107;-59
2022/11/10 05:49:19;;;;;;;88.30;8.95;;;;;;;;;;6298440;22;20046;-60
2022/11/10 05:51:53;;;;;;;67.78;8.15;;;;;;;;;;6299732;22;20026;-60
2022/11/10 05:54:27;;;;;;;55.33;7.82;;;;;;;;;;6300584;22;20119;-60
2022/11/10 05:57:01;;;;;;;69.80;8.38;;;;;;;;;;6299519;22;20066;-60
2022/11/10 05:59:48;;;;;;;88.22;9.63;;;;;;;;;;6299670;22;20065;-60
2022/11/10 06:02:22;;;;;;;77.88;8.80;;;;;;;;;;6300605;22;20050;-61
2022/11/10 06:04:56;;;;;;;86.45;9.35;;;;;;;;;;6301019;22;20019;-60
2022/11/10 06:07:23;;;;;;;63.20;8.63;;;;;;;;;;6300539;22;20116;-61
2022/11/10 06:09:57;;;;;;;88.07;9.43;;;;;;;;;;6302450;22;20031;-59
2022/11/10 06:12:24;;;;;;;87.80;8.82;;;;;;;;;;6301925;22;20019;-60
2022/11/10 06:14:51;;;;;;;75.50;8.48;;;;;;;;;;6301953;22;20025;-58
2022/11/10 06:17:25;;;;;;;80.38;10.13;;;;;;;;;;6301686;22;20107;-58
2022/11/10 06:19:52;;;;;;;;;;;;;;;;;;6303520;22;20015;-59
2022/11/10 06:22:26;;;;;;;64.82;8.20;;;;;;;;;;6302075;22;19942;-59
2022/11/10 06:24:53;;;;;;;79.90;8.98;;;;;;;;;;6302353;22;20556;-60
2022/11/10 06:27:20;;;;;;;74.65;9.95;;;;;;;;;;6302693;22;20531;-49
2022/11/10 06:29:54;;;;;;;74.93;8.50;;;;;;;;;;6302831;22;20102;-52
2022/11/10 06:32:21;;;;;;;56.78;7.70;;;;;;;;;;6302787;22;20041;-50
2022/11/10 06:34:55;;;;;;;57.20;7.78;;;;;;;;;;6301908;22;20023;-53
2022/11/10 06:37:26;;;;;;;73.25;8.52;;;;;;;;;;6302282;22;20023;-53
2022/11/10 06:39:53;;;;;;;70.22;9.60;;;;;;;;;;6302258;22;20098;-52
2022/11/10 06:42:27;;;;;;;70.30;9.43;;;;;;;;;;6301335;22;20107;-53
2022/11/10 06:44:54;;;;;;;82.20;10.07;;;;;;;;;;6302083;22;20022;-60
2022/11/10 06:47:28;;;;;;;62.47;8.35;;;;;;;;;;6301384;22;20411;-52
2022/11/10 06:49:55;;;;;;;93.63;10.43;;;;;;;;;;6302398;22;20020;-52
2022/11/10 06:52:23;;;;;;;78.20;10.27;;;;;;;;;;6302893;22;20022;-49
2022/11/10 06:54:57;;;;;;;84.68;10.30;;;;;;;;;;6302793;22;20680;-54
2022/11/10 06:57:24;;;;;;;72.32;9.70;;;;;;;;;;6301353;22;20360;-51
2022/11/10 07:00:12;;;;;;;83.15;10.77;;;;;;;;;;6301024;22;20057;-50
2022/11/10 07:02:46;;;;;;;77.28;10.77;;;;;;;;;;6300805;22;20027;-58
2022/11/10 07:05:20;;;;;;;74.85;10.57;;;;;;;;;;6302445;22;20023;-59
2022/11/10 07:07:47;;;;;;;102.70;11.07;;;;;;;;;;6300564;22;20027;-59
2022/11/10 07:10:14;;;;;;;77.57;9.88;;;;;;;;;;6302405;22;20126;-59
2022/11/10 07:12:48;;;;;;;73.70;10.13;;;;;;;;;;6300209;22;20033;-59
2022/11/10 07:15:15;;;;;;;89.90;11.18;;;;;;;;;;6302751;22;20022;-59
2022/11/10 07:17:49;;;;;;;78.78;10.43;;;;;;;;;;6300550;22;20027;-59
2022/11/10 07:20:16;;;;;;;85.38;10.70;;;;;;;;;;6301675;22;20019;-58
2022/11/10 07:22:43;;;;;;;97.20;11.63;;;;;;;;;;6301343;22;20098;-51
2022/11/10 07:25:17;;;;;;;95.72;13.15;;;;;;;;;;6301647;22;20042;-51
2022/11/10 07:27:44;;;;;;;101.47;12.10;;;;;;;;;;6301890;22;20097;-65
2022/11/10 07:30:18;;;;;;;75.57;11.10;;;;;;;;;;6300969;22;20023;-64
2022/11/10 07:32:45;;;;;;;86.85;11.90;;;;;;;;;;6300866;22;20058;-65
2022/11/10 07:35:19;;;;;;;95.88;12.15;;;;;;;;;;6301914;22;20019;-65
2022/11/10 07:37:46;;;;;;;;;;;;;;;;;;6302330;22;20554;-65
2022/11/10 07:40:13;;;;;;;102.85;12.55;;;;;;;;;;6299218;22;19919;-65
2022/11/10 07:42:47;;;;;;;96.45;10.10;;;;;;;;;;6300207;22;20019;-62
2022/11/10 07:45:14;;;;;;;97.60;11.70;;;;;;;;;;6302776;22;20106;-60
2022/11/10 07:47:41;;;;;;;96.80;11.93;;;;;;;;;;6301443;22;20019;-59
2022/11/10 07:50:15;;;;;;;85.32;10.15;;;;;;;;;;6302074;22;20023;-60
2022/11/10 07:52:42;;;;;;;91.13;11.10;;;;;;;;;;6300731;22;20019;-61
2022/11/10 07:55:16;;;;;;;85.85;11.75;;;;;;;;;;6301848;22;20020;-60
2022/11/10 07:57:43;;;;;;;91.57;10.35;;;;;;;;;;6300316;22;20030;-59
2022/11/10 08:00:11;;;;;;;73.97;11.02;;;;;;;;;;6300736;22;20102;-62
2022/11/10 08:02:45;;;;;;;84.70;9.88;;;;;;;;;;6300355;22;20443;-65
2022/11/10 08:05:12;;;;;;;100.88;10.35;;;;;;;;;;6301936;22;20049;-58
2022/11/10 08:07:46;;;;;;;93.22;10.48;;;;;;;;;;6301462;22;20102;-58
2022/11/10 08:10:13;;;;;;;69.05;9.07;;;;;;;;;;6301854;22;20024;-58
2022/11/10 08:12:40;;;;;;;67.97;10.05;;;;;;;;;;6299708;22;20764;-59
2022/11/10 08:15:14;;;;;;;76.18;10.15;;;;;;;;;;6301267;22;20103;-58
2022/11/10 08:17:41;;;;;;;79.75;8.63;;;;;;;;;;6300650;22;20027;-59
2022/11/10 08:20:08;;;;;;;91.22;11.98;;;;;;;;;;6301074;22;20502;-62
2022/11/10 08:22:42;;;;;;;78.30;10.75;;;;;;;;;;6301439;22;20023;-60
2022/11/10 08:25:09;;;;;;;79.00;11.20;;;;;;;;;;6301365;22;20022;-60
2022/11/10 08:27:37;;;;;;;82.40;10.80;;;;;;;;;;6299603;22;20543;-60
2022/11/10 08:30:11;;;;;;;81.97;11.15;;;;;;;;;;6274258;22;20102;-60
2022/11/10 08:32:38;;;;;;;93.50;10.30;;;;;;;;;;6297250;22;20029;-60
2022/11/10 08:35:12;;;;;;;74.28;9.50;;;;;;;;;;6300778;22;20023;-60
2022/11/10 08:37:39;;;;;;;87.20;9.98;;;;;;;;;;6301237;22;20027;-60
2022/11/10 08:40:07;;;;;;;60.00;8.95;;;;;;;;;;6301054;22;20019;-52
2022/11/10 08:42:41;;;;;;;69.55;9.80;;;;;;;;;;6300518;22;20484;-60
2022/11/10 08:45:08;;;;;;;73.35;10.27;;;;;;;;;;6300155;22;20038;-60
2022/11/10 08:47:36;;;;;;;85.13;8.90;;;;;;;;;;6300222;22;20016;-60
2022/11/10 08:50:10;;;;;;;75.70;9.88;;;;;;;;;;6299492;22;20029;-60
2022/11/10 08:52:44;;;;;;;83.07;10.05;;;;;;;;;;6300428;22;20166;-60
2022/11/10 08:55:11;;;;;;;95.00;10.32;;;;;;;;;;6300904;22;20023;-60
2022/11/10 08:57:38;;;;;;;85.60;10.77;;;;;;;;;;6299597;22;20027;-59
2022/11/10 09:00:25;;;;;;;71.90;10.15;;;;;;;;;;6300312;22;20380;-59
2022/11/10 09:03:28;;;;;;;77.15;9.50;;;;;;;;;;6299903;22;20468;-61
2022/11/10 09:06:02;;;;;;;76.65;9.50;;;;;;;;;;6275903;22;20051;-60
2022/11/10 09:08:32;;;;;;;79.05;10.13;;;;;;;;;;6301516;22;20023;-60
2022/11/10 09:11:03;;;;;;;58.47;8.60;;;;;;;;;;6300799;22;20107;-60
2022/11/10 09:13:37;;;;;;;53.67;7.95;;;;;;;;;;6300768;22;20390;-60
2022/11/10 09:16:05;;;;;;;67.88;8.75;;;;;;;;;;6274164;22;20023;-52
2022/11/10 09:18:32;;;;;;;69.85;9.73;;;;;;;;;;6301249;22;20019;-61
2022/11/10 09:21:10;;;;;;;66.15;8.48;;;;;;;;;;6301512;22;20113;-52
2022/11/10 09:23:37;;;;;;;60.85;8.68;;;;;;;;;;6301130;22;20093;-52
2022/11/10 09:26:11;;;;;;;66.70;9.63;;;;;;;;;;6301621;22;20016;-51
2022/11/10 09:28:38;;;;;;;56.00;7.82;;;;;;;;;;6301167;22;20853;-54
2022/11/10 09:31:12;;;;;;;73.53;9.00;;;;;;;;;;6301429;22;20015;-50
2022/11/10 09:33:46;;;;;;;63.47;8.10;;;;;;;;;;6298953;22;20030;-52
2022/11/10 09:36:13;;;;;;;80.40;9.40;;;;;;;;;;6300312;22;20457;-60
2022/11/10 09:38:47;;;;;;;74.60;8.35;;;;;;;;;;6301358;22;20026;-63
2022/11/10 09:41:14;;;;;;;59.58;8.30;;;;;;;;;;6301743;22;20058;-63
2022/11/10 09:43:48;;;;;;;74.55;7.90;;;;;;;;;;6302235;22;20102;-63
2022/11/10 09:46:22;;;;;;;80.43;9.00;;;;;;;;;;6303190;22;20095;-63
2022/11/10 09:49:00;;;;;;;71.93;8.60;;;;;;;;;;6276795;22;20110;-63
2022/11/10 09:51:30;;;;;;;60.08;8.07;;;;;;;;;;6304227;22;20019;-63
2022/11/10 09:54:22;;;;;;;76.40;8.18;;;;;;;;;;6302060;22;20118;-62
2022/11/10 09:56:50;;;;;;;60.53;7.72;;;;;;;;;;6302954;22;20031;-61
2022/11/10 09:59:35;;;;;;;47.63;6.80;;;;;;;;;;6302317;22;20102;-51
2022/11/10 10:02:18;;;;;;;68.45;8.30;;;;;;;;;;6302746;22;20046;-52
2022/11/10 10:05:11;;;;;;;60.13;7.82;;;;;;;;;;6302401;22;20405;-54
2022/11/10 10:07:46;;;;;;;58.25;7.07;;;;;;;;;;6303570;22;20678;-52
2022/11/10 10:10:24;;;;;;;64.15;7.93;;;;;;;;;;6301694;22;20019;-54
2022/11/10 10:12:54;;;;;;;52.13;6.40;;;;;;;;;;6301801;22;20027;-55
2022/11/10 10:15:47;;;;;;;54.53;6.68;;;;;;;;;;6302820;22;20015;-59
2022/11/10 10:18:29;;;;;;;59.80;7.60;;;;;;;;;;6301928;22;20031;-60
2022/11/10 10:21:11;;;;;;;52.20;7.05;;;;;;;;;;6303002;22;20126;-60
2022/11/10 10:23:43;;;;;;;63.15;7.05;;;;;;;;;;6302213;22;20015;-59
2022/11/10 10:26:42;;;;;;;47.28;5.95;;;;;;;;;;6301807;22;20020;-59
2022/11/10 10:29:10;;;;;;;54.15;6.20;;;;;;;;;;6303185;22;20023;-60
2022/11/10 10:31:47;;;;;;;58.40;7.47;;;;;;;;;;6302493;22;20019;-60
2022/11/10 10:34:15;;;;;;;73.03;7.03;;;;;;;;;;6301250;22;20345;-58
2022/11/10 10:36:44;;;;;;;44.78;6.30;;;;;;;;;;6302107;22;20138;-52
2022/11/10 10:39:33;;;;;;;51.40;6.60;;;;;;;;;;6302481;22;20061;-54
2022/11/10 10:42:30;;;;;;;59.03;7.00;;;;;;;;;;6301507;22;20427;-56
2022/11/10 10:45:12;;;;;;;49.50;5.78;;;;;;;;;;6301796;22;20023;-52
2022/11/10 10:47:46;;;;;;;;;;;;;;;;;;6300634;22;20031;-54
2022/11/10 10:50:24;;;;;;;46.78;6.07;;;;;;;;;;6301506;22;19997;-54
2022/11/10 10:53:15;;;;;;;56.90;5.95;;;;;;;;;;6301769;22;20023;-52
2022/11/10 10:55:48;;;;;;;45.80;5.82;;;;;;;;;;6300814;22;20364;-61
2022/11/10 10:58:23;;;;;;;45.60;6.53;;;;;;;;;;6300570;22;20743;-61
2022/11/10 11:01:16;;;;;;;44.63;5.82;;;;;;;;;;6300763;22;20105;-61
2022/11/10 11:03:58;;;;;;;47.70;6.40;;;;;;;;;;6300639;22;20019;-61
2022/11/10 11:06:28;;;;;;;47.25;5.43;;;;;;;;;;6301390;22;20027;-61
2022/11/10 11:09:07;;;;;;;55.58;6.30;;;;;;;;;;6300265;22;20027;-61
2022/11/10 11:11:35;;;;;;;56.08;6.03;;;;;;;;;;6300247;22;20023;-63
2022/11/10 11:14:21;;;;;;;57.10;6.22;;;;;;;;;;6300935;22;20031;-67
2022/11/10 11:16:50;;;;;;;39.83;4.88;;;;;;;;;;6301022;22;20030;-67
2022/11/10 11:19:25;;;;;;;48.28;5.65;;;;;;;;;;6300714;22;20019;-67
2022/11/10 11:22:00;;;;;;;36.40;5.60;;;;;;;;;;6301525;22;20030;-67
2022/11/10 11:24:41;;;;;;;40.88;5.35;;;;;;;;;;6300780;22;20511;-66
2022/11/10 11:27:08;;;;;;;38.63;4.78;;;;;;;;;;6301359;22;20094;-66
2022/11/10 11:30:01;;;;;;;32.70;5.38;;;;;;;;;;6301912;22;20043;-60
2022/11/10 11:32:38;;;;;;;51.80;5.15;;;;;;;;;;6300108;22;20403;-60
2022/11/10 11:35:18;;;;;;;36.60;5.50;;;;;;;;;;6300404;22;20023;-64
2022/11/10 11:38:04;;;;;;;31.20;5.38;;;;;;;;;;6300449;22;20102;-63
2022/11/10 11:41:01;;;;;;;37.05;5.07;;;;;;;;;;6300945;22;20098;-63
2022/11/10 11:43:43;;;;;;;35.50;4.85;;;;;;;;;;6302120;22;20023;-64
2022/11/10 11:46:23;;;;;;;36.35;5.15;;;;;;;;;;6301084;22;20059;-64
2022/11/10 11:48:56;;;;;;;44.30;4.97;;;;;;;;;;6301142;22;20556;-52
2022/11/10 11:51:47;;;;;;;42.38;4.63;;;;;;;;;;6301967;22;20027;-64
2022/11/10 11:54:28;;;;;;;42.10;5.15;;;;;;;;;;6299787;22;20491;-59
2022/11/10 11:57:17;;;;;;;42.92;5.30;;;;;;;;;;6300599;22;20016;-58
2022/11/10 12:00:09;;;;;;;26.90;4.45;;;;;;;;;;6300014;22;20029;-59
2022/11/10 12:02:50;;;;;;;39.33;5.17;;;;;;;;;;6299933;22;20058;-59
2022/11/10 12:05:22;;;;;;;42.40;4.82;;;;;;;;;;6300791;22;20102;-59
2022/11/10 12:08:15;;;;;;;40.60;5.57;;;;;;;;;;6300723;22;20023;-51
2022/11/10 12:10:51;;;;;;;38.25;4.57;;;;;;;;;;6300342;22;20026;-60
2022/11/10 12:13:31;;;;;;;34.83;5.10;;;;;;;;;;6300479;22;20090;-52
2022/11/10 12:16:01;;;;;;;30.50;3.95;;;;;;;;;;6300120;22;20353;-51
2022/11/10 12:18:37;;;;;;;39.60;4.90;;;;;;;;;;6300810;22;20020;-56
2022/11/10 12:21:23;;;;;;;44.83;5.32;;;;;;;;;;6273568;22;20026;-52
2022/11/10 12:24:04;;;;;;;40.63;4.45;;;;;;;;;;6300036;22;20023;-57
2022/11/10 12:26:55;;;;;;;37.28;5.22;;;;;;;;;;6301738;22;20105;-64
2022/11/10 12:29:32;;;;;;;39.65;4.32;;;;;;;;;;6300604;22;20464;-63
2022/11/10 12:32:09;;;;;;;41.97;5.75;;;;;;;;;;6299181;22;20407;-64
2022/11/10 12:34:46;;;;;;;42.83;5.88;;;;;;;;;;6301451;22;20099;-64
2022/11/10 12:37:20;;;;;;;34.22;4.50;;;;;;;;;;6300931;22;20019;-64
2022/11/10 12:40:11;;;;;;;35.47;4.68;;;;;;;;;;6300276;22;20054;-64
2022/11/10 12:42:46;;;;;;;36.08;5.57;;;;;;;;;;6300987;22;20023;-64
2022/11/10 12:45:22;;;;;;;29.85;4.13;;;;;;;;;;6301364;22;20027;-64
2022/11/10 12:47:49;;;;;;;30.90;4.10;;;;;;;;;;6300766;22;20055;-61
2022/11/10 12:50:43;;;;;;;41.80;5.25;;;;;;;;;;6301392;22;20094;-64
2022/11/10 12:53:17;;;;;;;28.17;4.57;;;;;;;;;;6299132;22;20095;-64
2022/11/10 12:55:46;;;;;;;33.85;4.63;;;;;;;;;;6302139;22;20066;-64
2022/11/10 12:58:20;;;;;;;28.50;4.75;;;;;;;;;;6301684;22;20417;-64
2022/11/10 13:00:47;;;;;;;;;;;;;;;;;;6298754;22;20026;-64
2022/11/10 13:03:29;;;;;;;34.13;4.60;;;;;;;;;;6299743;22;19915;-64
2022/11/10 13:05:58;;;;;;;25.33;4.90;;;;;;;;;;6301405;22;20023;-58
2022/11/10 13:08:32;;;;;;;30.05;3.70;;;;;;;;;;6299880;22;20019;-60
2022/11/10 13:11:02;;;;;;;30.00;4.53;;;;;;;;;;6299845;22;20054;-60
2022/11/10 13:13:40;;;;;;;28.75;4.82;;;;;;;;;;6301178;22;20019;-60
2022/11/10 13:16:09;;;;;;;33.45;4.50;;;;;;;;;;6302038;22;20027;-60
2022/11/10 13:18:43;;;;;;;36.58;4.78;;;;;;;;;;6301790;22;20045;-60
2022/11/10 13:21:10;;;;;;;40.33;5.38;;;;;;;;;;6302171;22;20047;-60
2022/11/10 13:23:44;;;;;;;38.38;5.05;;;;;;;;;;6301981;22;20488;-67
2022/11/10 13:26:31;;;;;;;29.58;4.93;;;;;;;;;;6304195;22;20050;-60
2022/11/10 13:29:24;;;;;;;43.65;4.55;;;;;;;;;;6302787;22;20027;-60
2022/11/10 13:31:53;;;;;;;32.28;4.28;;;;;;;;;;6301053;22;20019;-60
2022/11/10 13:34:28;;;;;;;38.00;5.38;;;;;;;;;;6302912;22;20061;-60
2022/11/10 13:36:56;;;;;;;34.47;5.00;;;;;;;;;;6303593;22;20077;-60
2022/11/10 13:39:31;;;;;;;29.92;4.22;;;;;;;;;;6302582;22;20126;-60
2022/11/10 13:42:00;;;;;;;35.15;4.50;;;;;;;;;;6302112;22;20065;-60
2022/11/10 13:44:28;;;;;;;35.42;5.00;;;;;;;;;;6302521;22;20094;-60
2022/11/10 13:47:08;;;;;;;45.15;4.22;;;;;;;;;;6300863;22;20133;-58
2022/11/10 13:49:51;;;;;;;44.40;5.65;;;;;;;;;;6302264;22;20019;-59
2022/11/10 13:52:18;;;;;;;40.40;5.30;;;;;;;;;;6302043;22;20019;-58
2022/11/10 13:55:14;;;;;;;28.95;4.75;;;;;;;;;;6301747;22;20124;-59
2022/11/10 13:57:59;;;;;;;31.02;4.43;;;;;;;;;;6302124;22;20080;-58
2022/11/10 14:00:41;;;;;;;29.13;4.75;;;;;;;;;;6300575;22;20025;-57
2022/11/10 14:03:33;;;;;;;31.48;4.72;;;;;;;;;;6300578;22;20536;-57
2022/11/10 14:06:10;;;;;;;41.90;5.43;;;;;;;;;;6303024;22;20027;-60
2022/11/10 14:08:39;;;;;;;30.60;4.05;;;;;;;;;;6301360;22;20020;-60
2022/11/10 14:11:12;;;;;;;37.22;4.30;;;;;;;;;;6275226;22;20560;-60
2022/11/10 14:13:50;;;;;;;27.77;4.00;;;;;;;;;;6301525;22;20023;-60
2022/11/10 14:16:25;;;;;;;15.00;2.60;;;;;;;;;;6301385;22;20023;-60
2022/11/10 14:19:05;;;;;;;18.10;2.90;;;;;;;;;;6301880;22;20023;-60
2022/11/10 14:21:32;;;;;;;26.17;3.58;;;;;;;;;;6301773;22;20098;-60
2022/11/10 14:24:13;;;;;;;18.50;2.67;;;;;;;;;;6301573;22;20019;-62
2022/11/10 14:26:42;;;;;;;14.88;2.42;;;;;;;;;;6302169;22;20023;-60
2022/11/10 14:29:37;;;;;;;18.00;2.80;;;;;;;;;;6302125;22;20103;-59
2022/11/10 14:32:12;;;;;;;15.25;3.13;;;;;;;;;;6301006;22;20032;-57
2022/11/10 14:34:49;;;;;;;17.75;3.47;;;;;;;;;;6300504;22;20507;-57
2022/11/10 14:37:22;;;;;;;23.02;2.67;;;;;;;;;;6301994;22;20114;-59
2022/11/10 14:39:56;;;;;;;15.55;2.67;;;;;;;;;;6301576;22;20023;-54
2022/11/10 14:42:25;;;;;;;18.42;2.40;;;;;;;;;;6301777;22;20050;-60
2022/11/10 14:45:05;;;;;;;12.68;2.92;;;;;;;;;;6301167;22;20472;-60
2022/11/10 14:47:42;;;;;;;20.02;2.92;;;;;;;;;;6300687;22;20456;-59
2022/11/10 14:50:18;;;;;;;16.25;2.85;;;;;;;;;;6275832;22;20022;-59
2022/11/10 14:52:47;;;;;;;11.65;2.20;;;;;;;;;;6300284;22;20019;-60
2022/11/10 14:55:23;;;;;;;14.43;2.28;;;;;;;;;;6302108;22;20099;-59
2022/11/10 14:57:58;;;;;;;11.75;2.00;;;;;;;;;;6300785;22;20449;-59
2022/11/10 15:00:40;;;;;;;9.73;1.92;;;;;;;;;;6301266;22;20029;-62
2022/11/10 15:03:17;;;;;;;9.23;1.75;;;;;;;;;;6301534;22;20046;-50
2022/11/10 15:05:51;;;;;;;6.30;1.85;;;;;;;;;;6301100;22;20462;-53
2022/11/10 15:08:18;;;;;;;10.35;1.60;;;;;;;;;;6300826;22;20026;-55
2022/11/10 15:10:55;;;;;;;7.32;1.70;;;;;;;;;;6302138;22;20076;-55
2022/11/10 15:13:32;;;;;;;4.50;1.35;;;;;;;;;;6302099;22;20696;-52
2022/11/10 15:16:27;;;;;;;7.50;1.80;;;;;;;;;;6301462;22;20367;-49
2022/11/10 15:18:56;;;;;;;;;;;;;;;;;;6301695;22;20106;-62
2022/11/10 15:21:32;;;;;;;6.43;1.35;;;;;;;;;;6301675;22;19915;-60
2022/11/10 15:24:02;;;;;;;7.07;2.05;;;;;;;;;;6300425;22;20015;-59